createdAt,value
2023-02-11T00:01:34.444Z,348.45
2023-02-11T00:04:03.133Z,315.50
2023-02-11T00:06:32.245Z,301.67
2023-02-11T00:09:00.449Z,327.55
2023-02-11T00:11:31.626Z,346.40
2023-02-11T00:14:02.337Z,379.67
2023-02-11T00:16:30.913Z,388.48
2023-02-11T00:19:02.932Z,396.65
2023-02-11T00:21:30.423Z,354.30
2023-02-11T00:24:00.162Z,366.52
2023-02-11T00:26:30.866Z,309.05
2023-02-11T00:28:58.473Z,321.17
2023-02-11T00:31:26.226Z,296.85
2023-02-11T00:33:54.323Z,334.35
2023-02-11T00:36:24.716Z,339.98
2023-02-11T00:38:54.484Z,348.85
2023-02-11T00:41:22.366Z,371.92
2023-02-11T00:43:50.472Z,361.98
2023-02-11T00:46:19.553Z,395.05
2023-02-11T00:48:47.440Z,378.58
2023-02-11T00:51:14.761Z,377.38
2023-02-11T00:53:42.380Z,352.73
2023-02-11T00:56:10.144Z,288.42
2023-02-11T00:58:37.634Z,324.38
2023-02-11T01:01:05.296Z,283.23
2023-02-11T01:03:34.757Z,307.40
2023-02-11T01:06:02.277Z,302.75
2023-02-11T01:08:29.870Z,316.02
2023-02-11T01:11:03.177Z,305.58
2023-02-11T01:13:31.875Z,291.35
2023-02-11T01:15:59.318Z,324.20
2023-02-11T01:18:27.165Z,335.30
2023-02-11T01:20:55.123Z,323.10
2023-02-11T01:23:24.291Z,306.17
2023-02-11T01:25:52.477Z,300.85
2023-02-11T01:28:25.784Z,317.10
2023-02-11T01:30:54.089Z,326.48
2023-02-11T01:33:23.033Z,339.67
2023-02-11T01:35:50.994Z,347.35
2023-02-11T01:38:24.699Z,316.02
2023-02-11T01:40:55.683Z,309.13
2023-02-11T01:43:25.325Z,321.15
2023-02-11T01:46:00.466Z,303.52
2023-02-11T01:48:36.574Z,314.05
2023-02-11T01:53:53.847Z,322.00
2023-02-11T01:56:41.091Z,273.08
2023-02-11T01:59:15.489Z,264.02
2023-02-11T02:01:48.688Z,280.27
2023-02-11T02:04:19.477Z,287.15
2023-02-11T02:06:59.831Z,296.15
2023-02-11T02:09:33.400Z,267.83
2023-02-11T02:12:00.684Z,364.30
2023-02-11T02:14:29.127Z,324.35
2023-02-11T02:16:56.441Z,307.35
2023-02-11T02:19:50.478Z,289.67
2023-02-11T02:22:42.536Z,261.85
2023-02-11T02:25:36.302Z,297.10
2023-02-11T02:28:45.681Z,283.70
2023-02-11T02:32:10.501Z,306.63
2023-02-11T02:35:12.600Z,256.35
2023-02-11T02:37:48.998Z,263.30
2023-02-11T02:40:21.644Z,252.95
2023-02-11T02:42:51.149Z,284.92
2023-02-11T02:45:19.540Z,308.42
2023-02-11T02:47:47.093Z,290.75
2023-02-11T02:50:17.203Z,242.80
2023-02-11T02:52:57.339Z,260.60
2023-02-11T02:56:09.155Z,256.88
2023-02-11T02:58:39.181Z,265.40
2023-02-11T03:01:33.039Z,349.25
2023-02-11T03:04:08.052Z,343.52
2023-02-11T03:06:52.230Z,285.33
2023-02-11T03:09:27.610Z,305.70
2023-02-11T03:11:54.991Z,285.85
2023-02-11T03:14:27.009Z,270.65
2023-02-11T03:16:57.745Z,259.60
2023-02-11T03:19:31.390Z,289.08
2023-02-11T03:21:58.563Z,254.52
2023-02-11T03:24:37.237Z,275.45
2023-02-11T03:27:12.690Z,255.95
2023-02-11T03:32:23.340Z,240.63
2023-02-11T03:35:01.670Z,273.05
2023-02-11T03:37:37.855Z,260.90
2023-02-11T03:40:10.635Z,254.13
2023-02-11T03:42:46.295Z,237.50
2023-02-11T03:45:19.006Z,236.43
2023-02-11T03:47:53.952Z,279.63
2023-02-11T03:50:23.355Z,293.45
2023-02-11T03:52:51.689Z,255.32
2023-02-11T03:55:21.691Z,324.17
2023-02-11T03:57:49.065Z,270.70
2023-02-11T04:00:16.667Z,274.52
2023-02-11T04:02:44.465Z,218.60
2023-02-11T04:05:15.678Z,321.52
2023-02-11T04:07:42.960Z,302.25
2023-02-11T04:10:12.594Z,329.10
2023-02-11T04:12:39.854Z,340.08
2023-02-11T04:15:08.025Z,348.05
2023-02-11T04:17:35.486Z,244.27
2023-02-11T04:20:03.642Z,293.92
2023-02-11T04:22:31.118Z,271.92
2023-02-11T04:24:58.665Z,255.65
2023-02-11T04:27:25.937Z,212.95
2023-02-11T04:29:54.327Z,203.65
2023-02-11T04:32:21.493Z,230.75
2023-02-11T04:34:49.023Z,226.30
2023-02-11T04:37:16.376Z,210.35
2023-02-11T04:39:43.838Z,182.93
2023-02-11T04:42:11.124Z,189.75
2023-02-11T04:44:38.942Z,158.65
2023-02-11T04:47:06.109Z,170.93
2023-02-11T04:49:33.607Z,187.30
2023-02-11T04:52:00.837Z,169.43
2023-02-11T04:54:28.296Z,185.10
2023-02-11T04:56:55.451Z,192.25
2023-02-11T04:59:22.944Z,210.75
2023-02-11T05:01:50.262Z,224.32
2023-02-11T05:04:18.210Z,203.98
2023-02-11T05:06:45.421Z,199.25
2023-02-11T05:09:13.421Z,182.27
2023-02-11T05:11:40.662Z,216.20
2023-02-11T05:14:08.248Z,197.40
2023-02-11T05:16:35.429Z,215.73
2023-02-11T05:19:03.109Z,192.45
2023-02-11T05:21:30.468Z,190.88
2023-02-11T05:23:58.276Z,172.90
2023-02-11T05:26:25.860Z,179.23
2023-02-11T05:28:53.384Z,157.80
2023-02-11T05:31:20.701Z,177.00
2023-02-11T05:33:48.184Z,165.93
2023-02-11T05:36:16.190Z,174.95
2023-02-11T05:38:43.945Z,181.10
2023-02-11T05:41:11.522Z,192.60
2023-02-11T05:43:39.055Z,162.80
2023-02-11T05:46:06.865Z,181.63
2023-02-11T05:48:35.226Z,174.77
2023-02-11T05:51:02.385Z,157.35
2023-02-11T05:53:29.893Z,201.68
2023-02-11T05:55:57.657Z,175.15
2023-02-11T05:58:25.147Z,191.13
2023-02-11T06:00:52.320Z,210.50
2023-02-11T06:03:19.831Z,226.90
2023-02-11T06:05:47.167Z,218.85
2023-02-11T06:08:14.621Z,225.90
2023-02-11T06:10:45.121Z,204.20
2023-02-11T06:13:12.841Z,266.52
2023-02-11T06:15:40.127Z,328.10
2023-02-11T06:18:07.650Z,220.95
2023-02-11T06:20:35.021Z,229.88
2023-02-11T06:23:02.568Z,233.32
2023-02-11T06:25:29.735Z,245.30
2023-02-11T06:27:57.379Z,220.35
2023-02-11T06:30:24.544Z,240.55
2023-02-11T06:32:52.180Z,242.52
2023-02-11T06:35:19.433Z,253.70
2023-02-11T06:37:48.144Z,247.95
2023-02-11T06:40:15.791Z,245.13
2023-02-11T06:42:43.265Z,262.75
2023-02-11T06:45:11.253Z,239.48
2023-02-11T06:47:40.463Z,259.48
2023-02-11T06:50:11.491Z,284.48
2023-02-11T06:52:39.108Z,256.98
2023-02-11T06:55:07.690Z,421.65
2023-02-11T06:57:35.252Z,414.65
2023-02-11T07:00:02.872Z,368.05
2023-02-11T07:02:30.178Z,361.17
2023-02-11T07:04:57.705Z,361.48
2023-02-11T07:07:25.009Z,364.55
2023-02-11T07:09:52.824Z,390.38
2023-02-11T07:12:20.104Z,349.65
2023-02-11T07:14:47.727Z,298.60
2023-02-11T07:17:15.059Z,295.70
2023-02-11T07:19:42.681Z,283.85
2023-02-11T07:22:09.894Z,321.00
2023-02-11T07:24:37.475Z,324.33
2023-02-11T07:27:04.803Z,333.80
2023-02-11T07:29:33.250Z,351.70
2023-02-11T07:32:00.497Z,351.27
2023-02-11T07:34:28.209Z,415.58
2023-02-11T07:36:55.349Z,429.35
2023-02-11T07:39:23.009Z,430.15
2023-02-11T07:41:50.181Z,417.80
2023-02-11T07:44:18.937Z,283.08
2023-02-11T07:46:46.498Z,431.05
2023-02-11T07:49:14.081Z,467.35
2023-02-11T07:51:41.375Z,449.25
2023-02-11T07:54:10.379Z,466.42
2023-02-11T07:56:37.555Z,426.92
2023-02-11T07:59:05.228Z,400.88
2023-02-11T08:01:32.760Z,354.90
2023-02-11T08:04:02.086Z,340.73
2023-02-11T08:06:31.695Z,378.10
2023-02-11T08:09:05.334Z,356.83
2023-02-11T08:11:33.135Z,341.58
2023-02-11T08:14:00.786Z,330.23
2023-02-11T08:16:31.012Z,335.73
2023-02-11T08:19:02.900Z,319.45
2023-02-11T08:21:30.777Z,342.10
2023-02-11T08:23:58.913Z,359.50
2023-02-11T08:26:29.233Z,346.60
2023-02-11T08:28:57.739Z,307.98
2023-02-11T08:31:28.579Z,358.70
2023-02-11T08:33:58.370Z,270.13
2023-02-11T08:36:29.320Z,227.60
2023-02-11T08:39:15.901Z,155.95
2023-02-11T08:41:46.010Z,85.22
2023-02-11T08:44:13.839Z,62.50
2023-02-11T08:46:41.050Z,46.53
2023-02-11T08:49:08.600Z,53.63
2023-02-11T08:51:37.180Z,38.70
2023-02-11T08:54:06.356Z,38.03
2023-02-11T08:56:34.034Z,38.92
2023-02-11T08:59:01.778Z,37.72
2023-02-11T09:01:31.268Z,41.67
2023-02-11T09:03:59.656Z,37.95
2023-02-11T09:06:27.936Z,32.85
2023-02-11T09:08:57.663Z,32.88
2023-02-11T09:11:32.190Z,35.80
2023-02-11T09:14:01.203Z,29.10
2023-02-11T09:16:31.962Z,28.45
2023-02-11T09:19:01.265Z,32.00
2023-02-11T09:21:29.447Z,25.25
2023-02-11T09:23:59.878Z,27.88
2023-02-11T09:26:30.292Z,28.20
2023-02-11T09:28:58.295Z,23.50
2023-02-11T09:31:27.501Z,26.77
2023-02-11T09:33:58.310Z,22.60
2023-02-11T09:36:31.864Z,26.17
2023-02-11T09:39:01.357Z,23.50
2023-02-11T09:41:58.952Z,26.52
2023-02-11T09:44:33.410Z,26.85
2023-02-11T09:47:31.803Z,29.50
2023-02-11T09:50:04.865Z,30.75
2023-02-11T09:52:56.116Z,27.73
2023-02-11T09:55:28.341Z,29.95
2023-02-11T09:57:57.352Z,29.58
2023-02-11T10:00:35.263Z,31.75
2023-02-11T10:03:39.120Z,29.80
2023-02-11T10:06:20.333Z,34.90
2023-02-11T10:08:59.938Z,35.40
2023-02-11T10:11:37.040Z,40.60
2023-02-11T10:14:16.101Z,43.80
2023-02-11T10:16:59.084Z,36.50
2023-02-11T10:19:32.223Z,34.95
2023-02-11T10:22:24.198Z,37.08
2023-02-11T10:25:00.350Z,36.25
2023-02-11T10:27:32.268Z,35.55
2023-02-11T10:30:06.250Z,36.92
2023-02-11T10:32:34.121Z,30.45
2023-02-11T10:35:10.661Z,36.25
2023-02-11T10:37:38.451Z,37.13
2023-02-11T10:40:12.850Z,32.17
2023-02-11T10:42:44.652Z,33.20
2023-02-11T10:45:22.407Z,31.23
2023-02-11T10:47:50.128Z,29.17
2023-02-11T10:50:29.605Z,26.50
2023-02-11T10:53:12.397Z,27.73
2023-02-11T10:55:55.916Z,34.60
2023-02-11T10:58:45.436Z,30.08
2023-02-11T11:01:24.469Z,32.55
2023-02-11T11:03:53.371Z,31.80
2023-02-11T11:06:33.155Z,34.95
2023-02-11T11:09:01.418Z,28.35
2023-02-11T11:11:28.691Z,31.55
2023-02-11T11:14:01.268Z,33.03
2023-02-11T11:16:33.683Z,29.70
2023-02-11T11:19:06.919Z,34.05
2023-02-11T11:21:45.910Z,37.60
2023-02-11T11:24:33.755Z,39.45
2023-02-11T11:27:04.426Z,35.55
2023-02-11T11:29:39.550Z,37.42
2023-02-11T11:32:15.410Z,33.35
2023-02-11T11:37:22.914Z,36.47
2023-02-11T11:41:35.381Z,41.33
2023-02-11T11:44:35.094Z,36.95
2023-02-11T11:47:11.157Z,33.13
2023-02-11T11:49:45.609Z,32.00
2023-02-11T11:52:31.213Z,33.45
2023-02-11T11:55:19.721Z,37.03
2023-02-11T11:57:46.880Z,42.95
2023-02-11T12:00:32.609Z,35.67
2023-02-11T12:03:18.925Z,33.50
2023-02-11T12:05:51.969Z,38.47
2023-02-11T12:08:34.027Z,32.30
2023-02-11T12:11:12.455Z,30.65
2023-02-11T12:13:57.507Z,31.25
2023-02-11T12:16:36.397Z,26.42
2023-02-11T12:19:11.629Z,27.73
2023-02-11T12:21:42.064Z,27.20
2023-02-11T12:24:47.774Z,26.77
2023-02-11T12:27:47.470Z,26.63
2023-02-11T12:30:20.503Z,28.58
2023-02-11T12:32:50.554Z,28.13
2023-02-11T12:35:20.831Z,30.00
2023-02-11T12:38:08.536Z,27.38
2023-02-11T12:40:35.986Z,31.30
2023-02-11T12:43:18.490Z,39.08
2023-02-11T12:46:05.259Z,33.65
2023-02-11T12:48:38.889Z,33.47
2023-02-11T12:51:14.713Z,44.47
2023-02-11T12:56:16.928Z,35.45
2023-02-11T12:58:45.793Z,35.65
2023-02-11T13:01:30.958Z,37.83
2023-02-11T13:04:17.473Z,41.10
2023-02-11T13:06:53.845Z,37.03
2023-02-11T13:09:26.995Z,49.28
2023-02-11T13:11:55.683Z,40.28
2023-02-11T13:14:41.557Z,38.15
2023-02-11T13:17:17.564Z,41.42
2023-02-11T13:19:49.503Z,40.78
2023-02-11T13:22:19.565Z,35.80
2023-02-11T13:24:49.618Z,38.58
2023-02-11T13:27:29.210Z,43.38
2023-02-11T13:30:01.251Z,37.60
2023-02-11T13:32:50.356Z,37.65
2023-02-11T13:35:28.537Z,35.63
2023-02-11T13:37:56.238Z,34.40
2023-02-11T13:40:41.918Z,37.05
2023-02-11T13:43:25.754Z,51.85
2023-02-11T13:45:57.789Z,52.40
2023-02-11T13:48:26.778Z,45.00
2023-02-11T13:50:59.383Z,59.05
2023-02-11T13:53:27.784Z,41.45
2023-02-11T13:56:07.965Z,51.78
2023-02-11T13:58:47.148Z,47.55
2023-02-11T14:01:34.803Z,86.03
2023-02-11T14:04:39.319Z,56.58
2023-02-11T14:07:45.430Z,65.43
2023-02-11T14:10:34.898Z,40.97
2023-02-11T14:13:25.926Z,111.38
2023-02-11T14:16:05.599Z,58.75
2023-02-11T14:18:37.136Z,48.70
2023-02-11T14:21:12.191Z,102.38
2023-02-11T14:23:40.598Z,96.13
2023-02-11T14:26:25.493Z,71.93
2023-02-11T14:28:57.065Z,52.33
2023-02-11T14:31:26.934Z,97.93
2023-02-11T14:34:13.154Z,176.82
2023-02-11T14:36:53.328Z,94.78
2023-02-11T14:39:20.793Z,174.85
2023-02-11T14:41:49.176Z,109.05
2023-02-11T14:44:19.622Z,61.33
2023-02-11T14:46:48.156Z,48.55
2023-02-11T14:49:25.730Z,48.78
2023-02-11T14:51:54.679Z,41.97
2023-02-11T14:54:25.422Z,39.20
2023-02-11T14:57:11.526Z,35.42
2023-02-11T15:02:28.362Z,37.15
2023-02-11T15:05:13.559Z,37.63
2023-02-11T15:07:43.978Z,36.80
2023-02-11T15:10:17.756Z,46.25
2023-02-11T15:12:48.241Z,37.78
2023-02-11T15:15:16.259Z,39.83
2023-02-11T15:17:46.308Z,43.70
2023-02-11T15:20:18.950Z,66.38
2023-02-11T15:22:47.347Z,52.88
2023-02-11T15:25:18.489Z,41.58
2023-02-11T15:27:50.325Z,38.15
2023-02-11T15:30:24.582Z,46.92
2023-02-11T15:33:00.182Z,51.28
2023-02-11T15:37:57.149Z,63.03
2023-02-11T15:40:28.142Z,116.78
2023-02-11T15:43:00.020Z,148.10
2023-02-11T15:45:38.900Z,87.45
2023-02-11T15:48:08.152Z,55.40
2023-02-11T15:50:37.431Z,67.00
2023-02-11T15:53:20.057Z,55.88
2023-02-11T15:55:49.009Z,50.30
2023-02-11T15:58:16.152Z,51.80
2023-02-11T16:00:51.831Z,52.05
2023-02-11T16:03:20.668Z,53.50
2023-02-11T16:05:48.135Z,50.38
2023-02-11T16:08:26.396Z,50.78
2023-02-11T16:10:58.874Z,50.55
2023-02-11T16:13:28.523Z,44.03
2023-02-11T16:16:04.205Z,48.08
2023-02-11T16:18:38.180Z,48.78
2023-02-11T16:21:12.660Z,36.30
2023-02-11T16:23:42.403Z,45.70
2023-02-11T16:26:20.802Z,50.38
2023-02-11T16:28:48.754Z,48.33
2023-02-11T16:31:17.408Z,47.92
2023-02-11T16:33:44.700Z,50.67
2023-02-11T16:36:13.653Z,55.35
2023-02-11T16:38:41.014Z,43.05
2023-02-11T16:41:11.931Z,56.22
2023-02-11T16:43:39.897Z,50.58
2023-02-11T16:46:07.445Z,54.83
2023-02-11T16:48:35.194Z,63.17
2023-02-11T16:51:03.682Z,45.88
2023-02-11T16:53:31.755Z,54.28
2023-02-11T16:55:59.901Z,50.65
2023-02-11T16:58:28.232Z,55.72
2023-02-11T17:00:57.324Z,52.75
2023-02-11T17:03:27.489Z,68.25
2023-02-11T17:05:57.214Z,63.65
2023-02-11T17:08:24.266Z,73.13
2023-02-11T17:10:52.064Z,72.13
2023-02-11T17:13:19.311Z,68.55
2023-02-11T17:15:46.823Z,66.13
2023-02-11T17:18:14.697Z,61.72
2023-02-11T17:20:42.258Z,88.70
2023-02-11T17:23:09.542Z,70.03
2023-02-11T17:25:37.611Z,72.18
2023-02-11T17:28:08.832Z,70.10
2023-02-11T17:30:36.465Z,72.22
2023-02-11T17:33:03.628Z,82.07
2023-02-11T17:35:31.234Z,80.38
2023-02-11T17:37:59.400Z,83.10
2023-02-11T17:40:27.267Z,81.00
2023-02-11T17:42:54.384Z,86.60
2023-02-11T17:45:22.452Z,81.57
2023-02-11T17:47:49.945Z,76.38
2023-02-11T17:50:17.522Z,86.38
2023-02-11T17:52:48.063Z,82.78
2023-02-11T17:55:15.889Z,71.93
2023-02-11T17:57:43.091Z,81.18
2023-02-11T18:00:11.121Z,89.45
2023-02-11T18:02:41.265Z,98.55
2023-02-11T18:05:08.784Z,91.93
2023-02-11T18:07:35.948Z,92.50
2023-02-11T18:10:05.492Z,80.00
2023-02-11T18:12:32.677Z,92.13
2023-02-11T18:15:00.142Z,79.43
2023-02-11T18:17:27.320Z,86.90
2023-02-11T18:19:57.685Z,81.60
2023-02-11T18:22:25.380Z,92.70
2023-02-11T18:24:53.506Z,86.97
2023-02-11T18:27:22.414Z,88.53
2023-02-11T18:29:49.804Z,73.00
2023-02-11T18:32:16.956Z,75.50
2023-02-11T18:34:44.398Z,73.13
2023-02-11T18:37:13.517Z,76.18
2023-02-11T18:39:41.210Z,82.57
2023-02-11T18:42:08.866Z,84.47
2023-02-11T18:44:36.576Z,97.97
2023-02-11T18:47:03.759Z,81.95
2023-02-11T18:49:31.226Z,94.60
2023-02-11T18:51:58.998Z,88.78
2023-02-11T18:54:26.460Z,89.05
2023-02-11T18:56:53.611Z,81.57
2023-02-11T18:59:21.012Z,110.63
2023-02-11T19:01:48.144Z,82.75
2023-02-11T19:04:20.134Z,86.25
2023-02-11T19:06:49.228Z,88.68
2023-02-11T19:09:18.470Z,79.53
2023-02-11T19:11:49.124Z,77.13
2023-02-11T19:14:21.699Z,88.80
2023-02-11T19:16:50.900Z,80.55
2023-02-11T19:19:18.961Z,77.90
2023-02-11T19:21:46.605Z,67.57
2023-02-11T19:24:16.322Z,73.50
2023-02-11T19:26:43.470Z,69.03
2023-02-11T19:29:10.995Z,76.43
2023-02-11T19:31:38.661Z,76.35
2023-02-11T19:34:07.594Z,80.47
2023-02-11T19:36:34.841Z,77.97
2023-02-11T19:39:02.799Z,78.95
2023-02-11T19:41:30.896Z,74.50
2023-02-11T19:43:58.324Z,69.35
2023-02-11T19:46:26.963Z,71.60
2023-02-11T19:48:54.705Z,74.70
2023-02-11T19:51:22.301Z,73.10
2023-02-11T19:53:51.160Z,79.82
2023-02-11T19:56:20.460Z,75.13
2023-02-11T19:58:48.277Z,69.95
2023-02-11T20:01:16.862Z,81.70
2023-02-11T20:03:44.555Z,81.32
2023-02-11T20:06:15.934Z,85.28
2023-02-11T20:08:45.149Z,83.93
2023-02-11T20:11:14.706Z,87.25
2023-02-11T20:13:42.545Z,93.22
2023-02-11T20:16:12.639Z,79.95
2023-02-11T20:18:40.637Z,72.53
2023-02-11T20:21:08.533Z,77.97
2023-02-11T20:23:36.276Z,73.90
2023-02-11T20:26:07.287Z,81.53
2023-02-11T20:28:35.302Z,75.70
2023-02-11T20:31:03.163Z,87.05
2023-02-11T20:33:31.437Z,84.57
2023-02-11T20:35:59.696Z,87.07
2023-02-11T20:38:27.318Z,101.72
2023-02-11T20:40:55.157Z,86.93
2023-02-11T20:43:23.130Z,81.22
2023-02-11T20:45:50.557Z,70.60
2023-02-11T20:48:18.211Z,77.35
2023-02-11T20:50:48.305Z,85.22
2023-02-11T20:53:15.916Z,83.22
2023-02-11T20:55:43.085Z,79.68
2023-02-11T20:58:10.580Z,79.05
2023-02-11T21:00:37.656Z,80.80
2023-02-11T21:03:05.193Z,76.82
2023-02-11T21:05:32.570Z,70.38
2023-02-11T21:08:00.132Z,71.05
2023-02-11T21:10:27.599Z,64.07
2023-02-11T21:12:55.212Z,58.80
2023-02-11T21:15:24.292Z,67.03
2023-02-11T21:17:51.708Z,70.47
2023-02-11T21:20:19.184Z,65.65
2023-02-11T21:22:46.644Z,70.55
2023-02-11T21:25:13.671Z,76.90
2023-02-11T21:27:41.201Z,87.70
2023-02-11T21:30:08.717Z,86.20
2023-02-11T21:32:36.169Z,85.97
2023-02-11T21:35:03.258Z,68.40
2023-02-11T21:37:30.680Z,64.43
2023-02-11T21:40:00.560Z,82.68
2023-02-11T21:42:28.103Z,59.80
2023-02-11T21:44:55.241Z,62.47
2023-02-11T21:47:22.831Z,64.28
2023-02-11T21:49:50.093Z,60.15
2023-02-11T21:52:17.522Z,62.90
2023-02-11T21:54:44.684Z,62.83
2023-02-11T21:57:12.086Z,55.92
2023-02-11T21:59:39.312Z,60.67
2023-02-11T22:02:06.900Z,58.38
2023-02-11T22:04:34.240Z,68.32
2023-02-11T22:07:03.167Z,66.78
2023-02-11T22:09:30.218Z,67.32
2023-02-11T22:11:57.833Z,64.05
2023-02-11T22:14:25.047Z,63.88
2023-02-11T22:16:52.477Z,63.20
2023-02-11T22:19:19.578Z,67.70
2023-02-11T22:21:47.903Z,68.78
2023-02-11T22:24:15.160Z,67.93
2023-02-11T22:26:42.705Z,55.58
2023-02-11T22:29:10.773Z,69.90
2023-02-11T22:31:38.660Z,58.88
2023-02-11T22:34:06.003Z,62.83
2023-02-11T22:36:34.997Z,57.15
2023-02-11T22:39:06.317Z,54.60
2023-02-11T22:41:33.913Z,54.92
2023-02-11T22:44:01.109Z,53.45
2023-02-11T22:46:28.620Z,50.08
2023-02-11T22:48:55.748Z,47.75
2023-02-11T22:51:24.863Z,49.83
2023-02-11T22:53:51.978Z,45.00
2023-02-11T22:56:19.558Z,47.72
2023-02-11T22:58:46.864Z,48.65
2023-02-11T23:01:14.604Z,53.92
2023-02-11T23:03:42.090Z,40.40
2023-02-11T23:06:11.975Z,43.83
2023-02-11T23:08:39.909Z,45.22
2023-02-11T23:11:08.914Z,48.35
2023-02-11T23:13:37.006Z,50.60
2023-02-11T23:16:05.428Z,45.47
2023-02-11T23:18:32.676Z,44.22
2023-02-11T23:21:04.873Z,43.95
2023-02-11T23:23:32.031Z,45.58
2023-02-11T23:25:59.841Z,48.15
2023-02-11T23:28:27.173Z,46.78
2023-02-11T23:30:54.981Z,49.20
2023-02-11T23:33:22.411Z,50.03
2023-02-11T23:35:49.780Z,40.92
2023-02-11T23:38:16.873Z,41.63
2023-02-11T23:40:44.196Z,42.33
2023-02-11T23:43:11.361Z,47.05
2023-02-11T23:45:38.709Z,48.42
2023-02-11T23:48:05.788Z,45.17
2023-02-11T23:50:34.011Z,37.90
2023-02-11T23:53:01.044Z,48.20
2023-02-11T23:55:28.358Z,42.08
2023-02-11T23:57:55.424Z,42.00
